Time;durP1;ratioP1;P1;durP2;ratioP2;P2;SDS_P1;SDS_P2;PMS_P1;PMS_P2;Temp;Humidity;BMP_temperature;BMP_pressure;BME280_temperature;BME280_humidity;BME280_pressure;Samples;Min_cycle;Max_cycle;Signal;HPM_P1;HPM_P2
2021/04/10 00:00:00;;;;;;;10.57;8.83;;;10.20;67.70;;;;;;5051388;28;20033;-75
2021/04/10 00:02:27;;;;;;;10.27;9.20;;;10.10;67.40;;;;;;5050347;28;20044;-75
2021/04/10 00:04:53;;;;;;;12.37;9.20;;;10.10;67.70;;;;;;5041406;28;20054;-74
2021/04/10 00:07:18;;;;;;;13.53;9.60;;;10.10;68.10;;;;;;5031292;28;20026;-75
2021/04/10 00:09:44;;;;;;;12.43;9.10;;;10.00;67.90;;;;;;5031948;28;20040;-74
2021/04/10 00:12:10;;;;;;;15.17;10.00;;;10.00;68.50;;;;;;5031946;28;20034;-75
2021/04/10 00:14:35;;;;;;;13.50;9.43;;;10.00;68.70;;;;;;5012505;28;20033;-75
2021/04/10 00:17:01;;;;;;;11.60;10.13;;;10.10;68.40;;;;;;5018660;28;20033;-75
2021/04/10 00:19:27;;;;;;;13.57;10.10;;;10.00;68.40;;;;;;5011584;28;20030;-74
2021/04/10 00:21:52;;;;;;;14.07;10.97;;;10.00;68.50;;;;;;5027245;28;20045;-74
2021/04/10 00:24:18;;;;;;;18.63;11.20;;;9.90;68.90;;;;;;5010078;28;20033;-75
2021/04/10 00:26:43;;;;;;;16.53;12.13;;;9.90;69.00;;;;;;5010768;28;20034;-74
2021/04/10 00:29:09;;;;;;;15.00;11.67;;;9.80;69.00;;;;;;5045852;28;20071;-75
2021/04/10 00:31:35;;;;;;;14.70;12.70;;;9.80;69.30;;;;;;5029470;28;20642;-74
2021/04/10 00:34:00;;;;;;;18.07;12.87;;;9.70;69.70;;;;;;5030487;28;20037;-74
2021/04/10 00:36:26;;;;;;;14.10;11.63;;;9.60;70.00;;;;;;5011643;28;20033;-75
2021/04/10 00:38:52;;;;;;;13.40;10.67;;;9.60;70.20;;;;;;5010536;28;20058;-75
2021/04/10 00:41:18;;;;;;;15.43;11.90;;;9.60;70.40;;;;;;5009480;28;20038;-76
2021/04/10 00:43:43;;;;;;;14.90;12.67;;;9.60;70.60;;;;;;5009648;28;20030;-75
2021/04/10 00:46:09;;;;;;;17.67;13.37;;;9.60;70.80;;;;;;5027184;28;20037;-74
2021/04/10 00:48:35;;;;;;;13.67;12.17;;;9.60;71.20;;;;;;5025787;28;20033;-74
2021/04/10 00:51:01;;;;;;;16.43;13.13;;;9.60;71.20;;;;;;5026698;28;20034;-75
2021/04/10 00:53:29;;;;;;;14.50;12.47;;;9.50;71.40;;;;;;5022225;28;20060;-74
2021/04/10 00:55:57;;;;;;;14.93;12.47;;;9.50;71.50;;;;;;5029791;28;20113;-75
2021/04/10 00:58:23;;;;;;;16.83;13.47;;;9.50;71.70;;;;;;5028789;28;20038;-75
2021/04/10 01:00:49;;;;;;;16.60;12.57;;;9.50;71.80;;;;;;5029423;28;20042;-74
2021/04/10 01:03:16;;;;;;;16.00;12.60;;;9.50;71.90;;;;;;5029523;28;20037;-75
2021/04/10 01:05:41;;;;;;;15.07;12.97;;;9.50;71.90;;;;;;5027861;28;20052;-74
2021/04/10 01:08:08;;;;;;;16.03;13.27;;;9.60;72.20;;;;;;5012932;28;20030;-75
2021/04/10 01:10:34;;;;;;;16.40;12.87;;;9.60;72.30;;;;;;5011856;28;20202;-75
2021/04/10 01:13:28;;;;;;;14.37;12.87;;;9.70;72.30;;;;;;5029192;28;20497;-75
2021/04/10 01:16:07;;;;;;;18.73;13.73;;;9.70;72.30;;;;;;5006934;28;20054;-75
2021/04/10 01:18:43;;;;;;;15.93;13.57;;;9.70;72.30;;;;;;5028407;28;20057;-75
2021/04/10 01:21:31;;;;;;;18.10;14.73;;;9.60;72.60;;;;;;5028643;28;20034;-74
2021/04/10 01:24:23;;;;;;;15.03;13.27;;;9.60;73.10;;;;;;5030736;28;20030;-75
2021/04/10 01:27:01;;;;;;;14.97;12.70;;;9.50;73.40;;;;;;5029209;28;20052;-74
2021/04/10 01:29:28;;;;;;;13.93;12.23;;;9.50;73.90;;;;;;5028078;28;20033;-74
2021/04/10 01:31:55;;;;;;;15.63;11.53;;;9.60;74.20;;;;;;5028666;28;20042;-75
2021/04/10 01:34:42;;;;;;;15.73;12.60;;;9.70;74.30;;;;;;5029049;28;20034;-75
2021/04/10 01:37:15;;;;;;;14.03;11.30;;;9.80;74.00;;;;;;5028858;28;20052;-75
2021/04/10 01:39:42;;;;;;;12.77;11.48;;;9.80;74.00;;;;;;5028006;28;20057;-75
2021/04/10 01:42:11;;;;;;;14.80;12.37;;;9.90;74.10;;;;;;5028635;28;20037;-75
2021/04/10 01:44:39;;;;;;;15.90;12.17;;;10.00;74.20;;;;;;5028052;28;20033;-75
2021/04/10 01:47:07;;;;;;;14.17;12.67;;;10.00;74.00;;;;;;5030140;28;20112;-75
2021/04/10 01:49:34;;;;;;;14.47;12.00;;;9.90;73.70;;;;;;5017084;28;20498;-75
2021/04/10 01:52:02;;;;;;;15.27;11.30;;;9.90;73.80;;;;;;5008812;28;20133;-75
2021/04/10 01:54:28;;;;;;;14.10;11.20;;;9.90;73.90;;;;;;5009204;28;20030;-75
2021/04/10 01:56:56;;;;;;;12.70;10.03;;;10.00;74.10;;;;;;4992564;28;20378;-75
2021/04/10 01:59:23;;;;;;;14.53;11.90;;;10.10;74.30;;;;;;5009322;28;20056;-76
2021/04/10 02:01:50;;;;;;;14.73;12.40;;;10.20;74.10;;;;;;5012293;28;20057;-75
2021/04/10 02:04:16;;;;;;;13.80;11.97;;;10.20;74.20;;;;;;5019145;28;20026;-75
2021/04/10 02:06:45;;;;;;;14.87;12.40;;;10.10;73.90;;;;;;5028636;28;20042;-75
2021/04/10 02:09:12;;;;;;;16.33;13.50;;;10.10;73.80;;;;;;5025002;28;20121;-75
2021/04/10 02:11:43;;;;;;;18.37;14.00;;;10.10;73.70;;;;;;5009717;28;20054;-75
2021/04/10 02:14:11;;;;;;;16.43;12.97;;;10.10;73.60;;;;;;5042122;28;20022;-75
2021/04/10 02:16:37;;;;;;;17.00;12.70;;;10.00;73.70;;;;;;5007675;28;20033;-75
2021/04/10 02:19:03;;;;;;;14.23;11.67;;;9.90;73.60;;;;;;5017541;28;20116;-75
2021/04/10 02:21:33;;;;;;;12.77;10.63;;;9.90;73.70;;;;;;5027719;28;20144;-76
2021/04/10 02:23:59;;;;;;;13.30;11.90;;;9.90;73.90;;;;;;5012540;28;20493;-76
2021/04/10 02:26:24;;;;;;;15.27;11.70;;;9.90;74.10;;;;;;5028262;28;20028;-75
2021/04/10 02:28:50;;;;;;;17.17;13.60;;;9.80;74.00;;;;;;5011110;28;20029;-75
2021/04/10 02:31:27;;;;;;;20.50;15.70;;;9.70;74.10;;;;;;5029824;28;20106;-75
2021/04/10 02:33:57;;;;;;;20.53;14.60;;;9.40;74.70;;;;;;5027956;28;20131;-75
2021/04/10 02:36:24;;;;;;;20.77;13.70;;;9.20;75.30;;;;;;5061324;28;20025;-75
2021/04/10 02:38:50;;;;;;;19.80;14.80;;;9.10;75.80;;;;;;5011486;28;20042;-75
2021/04/10 02:41:24;;;;;;;19.13;13.83;;;9.00;76.10;;;;;;5028251;28;20049;-75
2021/04/10 02:43:56;;;;;;;22.17;15.37;;;8.90;76.30;;;;;;5028889;28;20030;-75
2021/04/10 02:46:25;;;;;;;24.45;16.95;;;8.90;76.80;;;;;;5011457;28;20036;-75
2021/04/10 02:49:01;;;;;;;23.00;16.23;;;8.80;77.40;;;;;;5026657;28;20030;-75
2021/04/10 02:51:53;;;;;;;23.40;15.77;;;8.70;77.80;;;;;;5027970;28;20492;-75
2021/04/10 02:54:21;;;;;;;24.90;16.80;;;8.60;77.90;;;;;;5019633;28;20108;-75
2021/04/10 02:56:53;;;;;;;26.80;18.27;;;8.60;78.30;;;;;;5023582;28;20069;-75
2021/04/10 02:59:23;;;;;;;22.80;16.90;;;8.50;78.50;;;;;;5012584;28;20022;-75
2021/04/10 03:01:51;;;;;;;23.00;17.10;;;8.40;79.10;;;;;;5010752;28;20115;-75
2021/04/10 03:04:17;;;;;;;25.40;18.27;;;8.30;79.70;;;;;;5010071;28;20491;-75
2021/04/10 03:06:43;;;;;;;30.27;18.63;;;8.20;79.90;;;;;;5025878;28;20046;-75
2021/04/10 03:09:10;;;;;;;29.50;18.10;;;8.00;80.30;;;;;;5013727;28;20022;-75
2021/04/10 03:11:36;;;;;;;28.83;18.83;;;7.90;80.80;;;;;;4995005;28;20562;-76
2021/04/10 03:14:04;;;;;;;27.50;18.23;;;7.90;81.30;;;;;;5028173;28;20030;-75
2021/04/10 03:16:31;;;;;;;27.73;19.37;;;7.90;81.20;;;;;;5013166;28;20030;-75
2021/04/10 03:18:58;;;;;;;25.87;18.10;;;7.90;81.20;;;;;;5016612;28;20026;-75
2021/04/10 03:21:24;;;;;;;26.07;17.57;;;7.90;81.50;;;;;;5027506;28;20052;-75
2021/04/10 03:23:50;;;;;;;25.57;17.87;;;7.90;81.40;;;;;;5017535;28;20022;-75
2021/04/10 03:26:18;;;;;;;28.00;18.67;;;8.00;81.40;;;;;;5011555;28;20096;-75
2021/04/10 03:28:44;;;;;;;20.53;15.20;;;8.10;81.40;;;;;;5012361;28;20030;-75
2021/04/10 03:31:11;;;;;;;22.37;16.23;;;8.20;81.30;;;;;;5011603;28;20034;-75
2021/04/10 03:33:37;;;;;;;22.30;15.63;;;8.40;81.20;;;;;;5027881;28;20065;-76
2021/04/10 03:36:05;;;;;;;26.80;15.83;;;8.60;81.10;;;;;;5028268;28;20037;-75
2021/04/10 03:38:31;;;;;;;21.17;14.20;;;8.80;80.70;;;;;;5029388;28;20525;-75
2021/04/10 03:40:58;;;;;;;25.97;18.17;;;8.90;80.20;;;;;;5010351;28;20497;-75
2021/04/10 03:43:24;;;;;;;24.87;17.17;;;8.90;79.70;;;;;;5027988;28;20060;-75
2021/04/10 03:45:50;;;;;;;23.80;16.87;;;8.90;79.70;;;;;;5010739;28;20034;-75
2021/04/10 03:48:15;;;;;;;25.20;16.30;;;8.90;79.70;;;;;;5028046;28;20066;-75
2021/04/10 03:50:41;;;;;;;25.97;16.80;;;8.90;79.70;;;;;;5045994;28;20038;-75
2021/04/10 03:53:07;;;;;;;24.67;16.30;;;8.90;79.50;;;;;;5030740;28;20029;-75
2021/04/10 03:55:32;;;;;;;25.50;17.20;;;8.80;79.70;;;;;;5014406;28;20386;-75
2021/04/10 03:58:00;;;;;;;26.13;17.67;;;8.60;79.90;;;;;;5029638;28;20029;-76
2021/04/10 04:00:27;;;;;;;26.70;17.50;;;8.40;80.40;;;;;;5032383;28;20130;-75
2021/04/10 04:02:52;;;;;;;29.60;17.13;;;8.30;80.80;;;;;;5031450;28;20034;-75
2021/04/10 04:05:18;;;;;;;24.77;17.13;;;8.30;81.10;;;;;;5014391;28;20175;-75
2021/04/10 04:07:46;;;;;;;30.77;18.77;;;8.40;81.10;;;;;;5031634;28;20045;-76
2021/04/10 04:10:12;;;;;;;30.73;19.13;;;8.30;81.00;;;;;;5031413;28;20065;-75
2021/04/10 04:12:38;;;;;;;31.27;19.87;;;8.20;81.40;;;;;;5031767;28;20041;-75
2021/04/10 04:15:05;;;;;;;31.07;20.87;;;8.00;81.70;;;;;;5029920;28;20033;-75
2021/04/10 04:17:30;;;;;;;25.60;17.33;;;7.90;82.00;;;;;;5030987;28;20041;-75
2021/04/10 04:19:56;;;;;;;37.03;22.17;;;8.00;82.30;;;;;;5030103;28;20385;-76
2021/04/10 04:22:21;;;;;;;29.10;20.20;;;8.10;82.20;;;;;;5030315;28;20041;-75
2021/04/10 04:24:47;;;;;;;33.20;20.03;;;8.10;82.20;;;;;;5029647;28;20073;-76
2021/04/10 04:27:13;;;;;;;24.23;17.87;;;8.10;82.10;;;;;;5013861;28;20363;-75
2021/04/10 04:29:38;;;;;;;28.20;18.83;;;8.00;82.30;;;;;;5032019;28;20478;-75
2021/04/10 04:32:04;;;;;;;25.90;19.50;;;8.00;82.40;;;;;;5009291;28;20145;-75
2021/04/10 04:34:30;;;;;;;34.13;21.17;;;8.00;82.30;;;;;;5009602;28;20037;-75
2021/04/10 04:36:55;;;;;;;31.47;21.17;;;8.00;82.40;;;;;;5025927;28;20112;-76
2021/04/10 04:39:21;;;;;;;31.03;19.67;;;8.00;82.50;;;;;;5026316;28;20026;-75
2021/04/10 04:41:47;;;;;;;31.67;20.80;;;7.90;82.60;;;;;;5029184;28;20412;-75
2021/04/10 04:44:12;;;;;;;32.90;20.43;;;7.90;82.70;;;;;;5030308;28;20040;-75
2021/04/10 04:46:38;;;;;;;33.03;20.03;;;7.90;82.70;;;;;;5029485;28;20400;-75
2021/04/10 04:49:04;;;;;;;30.63;18.53;;;7.90;82.60;;;;;;5012742;28;20385;-75
2021/04/10 04:51:29;;;;;;;29.93;19.37;;;7.90;82.60;;;;;;5013248;28;20489;-74
2021/04/10 04:53:55;;;;;;;30.80;18.20;;;8.00;82.70;;;;;;5030330;28;20037;-75
2021/04/10 04:56:21;;;;;;;27.77;18.30;;;8.20;82.60;;;;;;5029588;28;20033;-75
2021/04/10 04:58:47;;;;;;;34.13;19.90;;;8.30;82.30;;;;;;5028984;28;20041;-76
2021/04/10 05:01:12;;;;;;;32.77;20.60;;;8.30;82.20;;;;;;5030392;28;20508;-75
2021/04/10 05:03:38;;;;;;;36.67;22.47;;;8.30;82.10;;;;;;5029411;28;20036;-75
2021/04/10 05:06:04;;;;;;;37.53;22.00;;;8.20;82.10;;;;;;5023522;28;20164;-75
2021/04/10 05:08:29;;;;;;;31.93;20.53;;;8.10;82.30;;;;;;5025860;28;20030;-75
2021/04/10 05:10:55;;;;;;;31.73;18.43;;;7.90;82.60;;;;;;5010023;28;20061;-75
2021/04/10 05:13:21;;;;;;;31.13;21.00;;;7.90;82.90;;;;;;5009644;28;20486;-75
2021/04/10 05:15:46;;;;;;;36.50;22.30;;;8.00;82.90;;;;;;5009665;28;20029;-75
2021/04/10 05:18:12;;;;;;;34.57;19.63;;;7.90;82.90;;;;;;5029126;28;20112;-75
2021/04/10 05:20:38;;;;;;;33.07;21.17;;;7.80;83.20;;;;;;5013231;28;20783;-74
2021/04/10 05:23:03;;;;;;;33.93;20.87;;;7.70;83.40;;;;;;5028457;28;20049;-76
2021/04/10 05:25:29;;;;;;;36.43;23.03;;;7.70;83.60;;;;;;5030403;28;20052;-75
2021/04/10 05:27:55;;;;;;;35.63;20.93;;;7.60;83.90;;;;;;5029896;28;20037;-74
2021/04/10 05:30:21;;;;;;;36.50;22.67;;;7.60;84.00;;;;;;5030871;28;20482;-74
2021/04/10 05:32:46;;;;;;;35.97;21.83;;;7.60;84.00;;;;;;5029035;28;20033;-73
2021/04/10 05:35:15;;;;;;;38.37;23.17;;;7.60;84.30;;;;;;5028221;28;20503;-74
2021/04/10 05:37:41;;;;;;;37.67;22.50;;;7.60;84.40;;;;;;5017316;28;20021;-74
2021/04/10 05:40:07;;;;;;;36.73;22.53;;;7.60;84.50;;;;;;5026279;28;20493;-76
2021/04/10 05:42:33;;;;;;;37.50;22.93;;;7.70;84.50;;;;;;5029048;28;20579;-73
2021/04/10 05:44:59;;;;;;;37.20;22.53;;;7.70;84.50;;;;;;5028119;28;20029;-74
2021/04/10 05:47:25;;;;;;;33.37;21.37;;;7.70;84.40;;;;;;5028565;28;20037;-76
2021/04/10 05:49:51;;;;;;;32.10;19.60;;;7.70;84.40;;;;;;5028899;28;20033;-74
2021/04/10 05:52:16;;;;;;;36.60;21.17;;;7.80;84.30;;;;;;5027452;28;20056;-74
2021/04/10 05:54:42;;;;;;;35.30;20.33;;;7.90;84.20;;;;;;5028943;28;20653;-74
2021/04/10 05:57:08;;;;;;;28.63;19.43;;;8.00;84.00;;;;;;5027572;28;20473;-74
2021/04/10 05:59:35;;;;;;;33.43;21.37;;;8.10;83.80;;;;;;5013106;28;20033;-74
2021/04/10 06:02:05;;;;;;;31.70;21.27;;;8.10;83.60;;;;;;5027834;28;20111;-75
2021/04/10 06:04:35;;;;;;;31.97;20.43;;;8.10;83.60;;;;;;5028826;28;20049;-74
2021/04/10 06:07:01;;;;;;;33.77;21.90;;;8.10;83.60;;;;;;5027941;28;20076;-75
2021/04/10 06:09:27;;;;;;;36.03;21.77;;;8.10;83.60;;;;;;5029415;28;20032;-76
2021/04/10 06:11:52;;;;;;;38.07;22.07;;;8.10;83.60;;;;;;5029355;28;20053;-76
2021/04/10 06:14:20;;;;;;;38.73;22.53;;;8.00;83.60;;;;;;5011676;28;20134;-75
2021/04/10 06:16:49;;;;;;;36.27;22.60;;;8.00;83.60;;;;;;5028996;28;20036;-78
2021/04/10 06:19:15;;;;;;;40.83;24.73;;;8.00;83.60;;;;;;5028365;28;20132;-75
2021/04/10 06:21:42;;;;;;;36.33;21.80;;;7.90;83.80;;;;;;5031195;28;20118;-77
2021/04/10 06:24:10;;;;;;;37.47;21.40;;;7.90;83.90;;;;;;5032417;28;20092;-75
2021/04/10 06:26:36;;;;;;;32.23;20.77;;;7.90;83.90;;;;;;5031598;28;20040;-76
2021/04/10 06:29:02;;;;;;;37.57;23.23;;;7.90;84.00;;;;;;5013349;28;20030;-76
2021/04/10 06:31:28;;;;;;;37.73;24.67;;;8.00;84.00;;;;;;5012231;28;20782;-76
2021/04/10 06:33:53;;;;;;;30.20;20.60;;;8.10;83.80;;;;;;5023620;28;20159;-75
2021/04/10 06:36:19;;;;;;;35.87;21.77;;;8.20;83.70;;;;;;5036477;28;20339;-76
2021/04/10 06:38:44;;;;;;;35.27;22.00;;;8.30;83.90;;;;;;5011144;28;20029;-76
2021/04/10 06:41:13;;;;;;;36.17;22.40;;;8.30;83.20;;;;;;5016523;28;20038;-75
2021/04/10 06:43:43;;;;;;;31.90;22.17;;;8.30;83.20;;;;;;5022274;28;20029;-75
2021/04/10 06:46:12;;;;;;;35.80;21.73;;;8.40;83.00;;;;;;5020705;28;20040;-74
2021/04/10 06:48:39;;;;;;;36.37;21.20;;;8.40;82.80;;;;;;5013095;28;20037;-74
2021/04/10 06:51:05;;;;;;;34.93;22.13;;;8.30;82.70;;;;;;5048318;28;20025;-76
2021/04/10 06:53:33;;;;;;;27.70;19.40;;;8.30;82.60;;;;;;5056224;28;20014;-75
2021/04/10 06:56:03;;;;;;;36.17;23.27;;;8.30;83.00;;;;;;5025694;28;20168;-74
2021/04/10 06:58:36;;;;;;;29.30;20.83;;;8.40;82.50;;;;;;5031644;28;20124;-75
2021/04/10 07:01:02;;;;;;;;;;;8.30;82.20;;;;;;5030039;28;20052;-76
2021/04/10 07:03:28;;;;;;;34.80;22.07;;;8.20;82.40;;;;;;5031867;28;19905;-75
2021/04/10 07:05:54;;;;;;;33.67;21.60;;;8.20;82.40;;;;;;5034177;28;20029;-76
2021/04/10 07:08:23;;;;;;;35.70;22.77;;;8.10;82.60;;;;;;5030138;28;20371;-74
2021/04/10 07:10:52;;;;;;;33.43;22.10;;;8.10;82.70;;;;;;5031650;28;20045;-74
2021/04/10 07:13:18;;;;;;;39.43;24.40;;;8.30;83.10;;;;;;5030714;28;20477;-74
2021/04/10 07:15:44;;;;;;;38.37;25.07;;;8.20;82.40;;;;;;5032097;28;20021;-75
2021/04/10 07:18:10;;;;;;;37.37;23.40;;;8.30;82.30;;;;;;5030959;28;20032;-76
2021/04/10 07:20:36;;;;;;;38.63;22.70;;;8.30;82.20;;;;;;5048313;28;20494;-75
2021/04/10 07:23:11;;;;;;;41.00;23.57;;;8.20;82.30;;;;;;5031770;28;20027;-76
2021/04/10 07:25:39;;;;;;;41.23;26.00;;;8.20;82.40;;;;;;5033855;28;20060;-76
2021/04/10 07:28:23;;;;;;;44.73;26.07;;;8.10;82.30;;;;;;5016940;28;20038;-75
2021/04/10 07:31:00;;;;;;;46.37;28.23;;;8.00;82.60;;;;;;5022513;28;20034;-75
2021/04/10 07:33:59;;;;;;;42.80;26.67;;;8.00;82.70;;;;;;5030763;28;20017;-76
2021/04/10 07:36:25;;;;;;;45.03;27.63;;;8.00;82.90;;;;;;5024571;28;20061;-76
2021/04/10 07:39:00;;;;;;;47.00;28.37;;;8.00;82.80;;;;;;5028260;28;20099;-76
2021/04/10 07:41:25;;;;;;;49.57;28.63;;;8.00;82.80;;;;;;5023309;28;20241;-76
2021/04/10 07:43:51;;;;;;;46.23;27.87;;;7.90;82.90;;;;;;5026386;28;20531;-76
2021/04/10 07:46:27;;;;;;;54.27;28.33;;;8.00;82.90;;;;;;5009207;28;20051;-75
2021/04/10 07:49:12;;;;;;;44.37;26.90;;;8.00;82.90;;;;;;5022605;28;20159;-74
2021/04/10 07:52:01;;;;;;;43.60;25.77;;;7.90;83.30;;;;;;5021417;28;20489;-76
2021/04/10 07:54:35;;;;;;;44.17;26.00;;;8.10;83.70;;;;;;5013500;28;20033;-76
2021/04/10 07:57:04;;;;;;;48.23;28.13;;;7.90;83.30;;;;;;5027318;28;20077;-78
2021/04/10 07:59:51;;;;;;;39.17;25.30;;;7.80;83.80;;;;;;5026162;28;20034;-75
2021/04/10 08:02:18;;;;;;;44.53;28.13;;;7.80;84.20;;;;;;5030891;28;20041;-76
2021/04/10 08:05:01;;;;;;;52.30;30.57;;;7.90;84.50;;;;;;5032171;28;20155;-75
2021/04/10 08:07:31;;;;;;;48.65;29.67;;;8.00;84.70;;;;;;5046501;28;20041;-74
2021/04/10 08:10:07;;;;;;;52.67;31.93;;;8.00;84.10;;;;;;5063375;28;20022;-76
2021/04/10 08:12:35;;;;;;;51.53;31.00;;;8.10;84.30;;;;;;5029900;28;20022;-76
2021/04/10 08:15:03;;;;;;;53.33;30.30;;;8.00;84.60;;;;;;5030777;28;20025;-75
2021/04/10 08:17:39;;;;;;;114.73;48.80;;;7.90;84.30;;;;;;5042438;28;20453;-73
2021/04/10 08:20:30;;;;;;;61.53;34.07;;;8.00;85.00;;;;;;5030385;28;20021;-75
2021/04/10 08:23:20;;;;;;;48.37;30.90;;;8.10;85.10;;;;;;5030734;28;20052;-75
2021/04/10 08:25:46;;;;;;;53.77;31.70;;;8.30;84.70;;;;;;5010900;28;20536;-74
2021/04/10 08:28:13;;;;;;;45.17;27.87;;;8.20;84.80;;;;;;5031272;28;20025;-74
2021/04/10 08:30:38;;;;;;;51.90;30.47;;;8.30;84.30;;;;;;5030917;28;20033;-75
2021/04/10 08:33:04;;;;;;;46.33;27.27;;;8.30;84.30;;;;;;5045493;28;20486;-75
2021/04/10 08:35:30;;;;;;;45.50;28.60;;;8.40;84.20;;;;;;5045991;28;20036;-75
2021/04/10 08:38:01;;;;;;;45.00;28.93;;;8.40;84.00;;;;;;5046584;28;20040;-74
2021/04/10 08:40:29;;;;;;;46.03;28.83;;;8.40;84.20;;;;;;5046067;28;20091;-75
2021/04/10 08:42:57;;;;;;;49.77;31.33;;;8.50;84.40;;;;;;5046005;28;20490;-75
2021/04/10 08:45:29;;;;;;;51.73;31.57;;;8.70;84.10;;;;;;5035611;28;20378;-76
2021/04/10 08:48:00;;;;;;;46.22;30.40;;;8.80;83.20;;;;;;5011425;28;20058;-75
2021/04/10 08:50:28;;;;;;;52.57;32.63;;;8.70;83.40;;;;;;5013513;28;20417;-74
2021/04/10 08:52:54;;;;;;;52.53;33.50;;;8.60;83.60;;;;;;5033950;28;20029;-75
2021/04/10 08:55:21;;;;;;;44.97;30.63;;;8.60;84.00;;;;;;5015489;28;20047;-75
2021/04/10 08:57:47;;;;;;;50.03;33.03;;;8.50;84.10;;;;;;5065072;28;20036;-76
2021/04/10 09:00:19;;;;;;;59.93;35.70;;;8.40;84.60;;;;;;5033997;28;20068;-74
2021/04/10 09:02:56;;;;;;;56.07;35.57;;;8.10;85.10;;;;;;5033754;28;20057;-75
2021/04/10 09:05:23;;;;;;;57.43;35.07;;;8.10;85.90;;;;;;5062161;28;20026;-76
2021/04/10 09:07:48;;;;;;;56.07;35.57;;;8.10;86.00;;;;;;5056356;28;20390;-76
2021/04/10 09:10:27;;;;;;;58.03;36.77;;;8.00;86.10;;;;;;5047465;28;20030;-75
2021/04/10 09:13:04;;;;;;;66.00;40.83;;;7.90;86.30;;;;;;5010830;28;20022;-77
2021/04/10 09:15:31;;;;;;;63.03;40.07;;;7.80;87.30;;;;;;5029760;28;20120;-76
2021/04/10 09:17:58;;;;;;;61.67;40.53;;;7.90;87.10;;;;;;5020474;28;20018;-77
2021/04/10 09:20:45;;;;;;;58.87;39.10;;;8.10;87.20;;;;;;5029835;28;20061;-80
2021/04/10 09:23:28;;;;;;;60.73;40.07;;;8.10;87.00;;;;;;5030249;28;20144;-79
2021/04/10 09:26:11;;;;;;;59.55;36.95;;;8.10;87.00;;;;;;5029509;28;20026;-76
2021/04/10 09:29:05;;;;;;;58.90;37.13;;;8.20;86.90;;;;;;5029551;28;20092;-79
2021/04/10 09:31:48;;;;;;;59.50;39.00;;;8.10;87.30;;;;;;5025429;28;20057;-77
2021/04/10 09:34:54;;;;;;;63.47;39.60;;;8.00;87.80;;;;;;5031180;28;20021;-78
2021/04/10 09:37:19;;;;;;;66.93;43.67;;;8.00;87.90;;;;;;5008137;28;20063;-78
2021/04/10 09:39:55;;;;;;;62.90;41.27;;;8.10;88.00;;;;;;5029854;28;20025;-77
2021/04/10 09:45:16;;;;;;;63.57;41.13;;;8.10;87.70;;;;;;5030698;28;20026;-78
2021/04/10 09:47:57;;;;;;;59.40;39.67;;;8.20;87.90;;;;;;5031021;28;20049;-78
2021/04/10 09:50:26;;;;;;;64.83;40.97;;;8.30;87.80;;;;;;5053304;28;20041;-81
2021/04/10 09:52:58;;;;;;;67.10;42.37;;;8.30;88.00;;;;;;5018949;28;20113;-78
2021/04/10 09:55:25;;;;;;;60.60;39.30;;;8.40;88.10;;;;;;5019193;28;20168;-79
2021/04/10 09:57:58;;;;;;;68.13;40.60;;;8.40;87.80;;;;;;5027044;28;20382;-77
2021/04/10 10:00:24;;;;;;;68.00;42.80;;;8.30;87.90;;;;;;5014813;28;20109;-79
2021/04/10 10:02:52;;;;;;;64.57;40.10;;;8.50;88.00;;;;;;5009505;28;20049;-77
2021/04/10 10:05:18;;;;;;;57.03;38.80;;;8.50;87.50;;;;;;5010681;28;20032;-79
2021/04/10 10:07:44;;;;;;;63.00;40.37;;;8.30;87.60;;;;;;5007872;28;20037;-79
2021/04/10 10:10:11;;;;;;;61.70;40.63;;;8.20;88.00;;;;;;5042864;28;20033;-77
2021/04/10 10:12:36;;;;;;;61.27;38.40;;;8.10;88.20;;;;;;5027622;28;20021;-78
2021/04/10 10:15:03;;;;;;;63.83;41.43;;;8.10;88.70;;;;;;5012111;28;20045;-79
2021/04/10 10:17:29;;;;;;;70.83;41.27;;;8.00;88.80;;;;;;5011010;28;20079;-76
2021/04/10 10:20:14;;;;;;;72.90;46.00;;;8.20;88.90;;;;;;5012442;28;20033;-78
2021/04/10 10:22:41;;;;;;;71.17;42.87;;;8.30;89.10;;;;;;5010743;28;20033;-77
2021/04/10 10:25:08;;;;;;;70.97;45.73;;;8.40;88.90;;;;;;5029449;28;20036;-78
2021/04/10 10:27:34;;;;;;;69.90;45.23;;;8.40;89.00;;;;;;5010733;28;20060;-79
2021/04/10 10:30:01;;;;;;;74.13;45.87;;;8.50;88.80;;;;;;5061477;28;20477;-79
2021/04/10 10:32:26;;;;;;;65.60;42.07;;;8.60;88.80;;;;;;5029743;28;20505;-80
2021/04/10 10:34:52;;;;;;;67.20;45.10;;;8.60;88.70;;;;;;5012012;28;20095;-79
2021/04/10 10:37:24;;;;;;;83.33;52.03;;;8.50;88.80;;;;;;5028556;28;20025;-78
2021/04/10 10:39:49;;;;;;;74.33;46.53;;;8.60;89.00;;;;;;5027691;28;20789;-78
2021/04/10 10:42:22;;;;;;;68.80;44.83;;;8.80;88.90;;;;;;5029478;28;20065;-80
2021/04/10 10:44:48;;;;;;;;;;;8.70;88.70;;;;;;5028015;28;20037;-79
2021/04/10 10:47:13;;;;;;;83.37;53.50;;;8.90;88.80;;;;;;5061965;28;19917;-79
2021/04/10 10:49:39;;;;;;;74.30;49.10;;;9.10;88.60;;;;;;5027305;28;20040;-80
2021/04/10 10:52:05;;;;;;;68.73;45.67;;;9.30;88.40;;;;;;5030031;28;20465;-78
2021/04/10 10:54:36;;;;;;;65.90;41.60;;;9.50;87.90;;;;;;5028108;28;20033;-78
2021/04/10 10:57:13;;;;;;;68.17;43.73;;;9.50;87.30;;;;;;5029130;28;20056;-79
2021/04/10 10:59:39;;;;;;;67.07;44.23;;;9.50;87.10;;;;;;5029108;28;20030;-77
2021/04/10 11:02:05;;;;;;;67.10;42.93;;;9.30;87.20;;;;;;5027844;28;20128;-78
2021/04/10 11:04:36;;;;;;;68.13;44.50;;;9.30;87.60;;;;;;5060936;28;20116;-78
2021/04/10 11:07:05;;;;;;;68.03;43.70;;;9.30;87.60;;;;;;5023901;28;20037;-77
2021/04/10 11:09:33;;;;;;;67.83;43.53;;;9.30;87.90;;;;;;5021444;28;20030;-79
2021/04/10 11:12:04;;;;;;;64.70;44.03;;;9.40;88.00;;;;;;5028460;28;20057;-78
2021/04/10 11:14:32;;;;;;;71.73;44.63;;;9.60;88.00;;;;;;5028184;28;20077;-78
2021/04/10 11:16:59;;;;;;;69.70;44.03;;;9.70;87.70;;;;;;5060542;28;20025;-80
2021/04/10 11:19:29;;;;;;;64.43;43.17;;;9.80;87.70;;;;;;5029473;28;20112;-80
2021/04/10 11:21:57;;;;;;;64.60;42.97;;;9.90;87.50;;;;;;5028019;28;20037;-77
2021/04/10 11:24:39;;;;;;;68.00;43.27;;;9.80;87.30;;;;;;5028177;28;20551;-79
2021/04/10 11:27:14;;;;;;;66.20;44.37;;;9.50;87.30;;;;;;5062059;28;20040;-78
2021/04/10 11:29:58;;;;;;;75.57;45.57;;;9.40;88.10;;;;;;5063334;28;20044;-77
2021/04/10 11:32:26;;;;;;;77.40;47.30;;;9.30;88.30;;;;;;5029058;28;20034;-78
2021/04/10 11:34:54;;;;;;;76.00;46.97;;;9.30;88.70;;;;;;5031181;28;20025;-77
2021/04/10 11:37:35;;;;;;;79.60;51.03;;;9.30;89.00;;;;;;5030979;28;20029;-77
2021/04/10 11:40:03;;;;;;;92.30;55.93;;;9.30;89.30;;;;;;5045672;28;20144;-78
2021/04/10 11:42:31;;;;;;;79.30;50.73;;;9.30;89.60;;;;;;5032118;28;20055;-78
2021/04/10 11:45:09;;;;;;;90.83;55.97;;;9.30;89.80;;;;;;5060366;28;20084;-78
2021/04/10 11:47:40;;;;;;;94.07;56.63;;;9.40;90.00;;;;;;5032257;28;20022;-79
2021/04/10 11:50:16;;;;;;;101.93;61.07;;;9.40;90.00;;;;;;5032324;28;20029;-77
2021/04/10 11:52:44;;;;;;;111.47;67.10;;;9.40;90.00;;;;;;5030739;28;20092;-76
2021/04/10 11:55:17;;;;;;;100.73;60.60;;;9.50;90.30;;;;;;5031144;28;20146;-79
2021/04/10 11:57:44;;;;;;;98.65;62.50;;;9.60;90.30;;;;;;5031299;28;20033;-75
2021/04/10 12:00:16;;;;;;;104.77;64.53;;;9.60;90.20;;;;;;5058466;28;20041;-79
2021/04/10 12:02:46;;;;;;;115.70;72.55;;;9.50;90.30;;;;;;5047313;28;20502;-76
2021/04/10 12:05:19;;;;;;;124.77;73.87;;;9.40;90.40;;;;;;5064468;28;20401;-78
2021/04/10 12:08:04;;;;;;;;;;;9.30;90.60;;;;;;5063628;28;20389;-77
2021/04/10 12:10:30;;;;;;;121.53;74.00;;;9.30;90.80;;;;;;5032188;28;19926;-78
2021/04/10 12:12:56;;;;;;;120.00;75.03;;;9.50;90.90;;;;;;5063106;28;20017;-79
2021/04/10 12:15:40;;;;;;;113.57;72.23;;;9.40;90.70;;;;;;5047407;28;20037;-78
2021/04/10 12:18:09;;;;;;;127.63;77.03;;;9.30;90.80;;;;;;5031455;28;20104;-78
2021/04/10 12:20:38;;;;;;;118.83;74.33;;;9.20;90.80;;;;;;5063601;28;20378;-77
2021/04/10 12:23:05;;;;;;;123.00;78.60;;;9.20;91.00;;;;;;5030481;28;20049;-77
2021/04/10 12:25:31;;;;;;;118.13;73.43;;;9.20;91.10;;;;;;5063608;28;20024;-78
2021/04/10 12:27:56;;;;;;;117.13;73.87;;;9.20;91.10;;;;;;5030816;28;20033;-76
2021/04/10 12:30:22;;;;;;;121.33;74.87;;;9.30;91.20;;;;;;5031531;28;20060;-77
2021/04/10 12:32:48;;;;;;;121.87;74.97;;;9.30;91.00;;;;;;5030869;28;20367;-78
2021/04/10 12:35:14;;;;;;;122.20;74.00;;;9.20;90.90;;;;;;5030761;28;20040;-79
2021/04/10 12:37:40;;;;;;;125.70;77.73;;;9.10;91.00;;;;;;5032170;28;20033;-79
2021/04/10 12:40:07;;;;;;;135.83;82.63;;;9.10;91.10;;;;;;5029588;28;20064;-79
2021/04/10 12:42:34;;;;;;;132.03;80.17;;;9.10;91.10;;;;;;5032394;28;20041;-79
2021/04/10 12:45:00;;;;;;;125.53;78.57;;;9.20;91.30;;;;;;5030577;28;20036;-79
2021/04/10 12:47:25;;;;;;;123.73;76.87;;;9.20;91.30;;;;;;5032393;28;20032;-78